Time;durP1;ratioP1;P1;durP2;ratioP2;P2;SDS_P1;SDS_P2;PMS_P1;PMS_P2;Temp;Humidity;BMP_temperature;BMP_pressure;BME280_temperature;BME280_humidity;BME280_pressure;Samples;Min_cycle;Max_cycle;Signal;HPM_P1;HPM_P2
2023/08/15 00:01:12;;;;;;;14.63;10.60;;;18.60;94.00;;;;;;5048158;28;20673;-78
2023/08/15 00:03:39;;;;;;;17.40;9.90;;;18.70;94.20;;;;;;5049152;28;20079;-76
2023/08/15 00:06:05;;;;;;;11.07;9.57;;;18.60;94.40;;;;;;5033882;28;20078;-77
2023/08/15 00:08:31;;;;;;;11.35;9.57;;;18.60;94.70;;;;;;5063585;28;20047;-76
2023/08/15 00:10:57;;;;;;;13.55;9.68;;;18.60;94.90;;;;;;5051640;28;20056;-78
2023/08/15 00:13:23;;;;;;;11.52;9.73;;;18.60;95.10;;;;;;5034795;28;20047;-76
2023/08/15 00:15:48;;;;;;;10.45;8.95;;;18.60;95.40;;;;;;5061608;28;20040;-77
2023/08/15 00:18:14;;;;;;;13.10;9.90;;;18.50;95.50;;;;;;5035295;28;20066;-76
2023/08/15 00:20:40;;;;;;;13.82;9.68;;;18.50;95.60;;;;;;5047368;28;20051;-78
2023/08/15 00:23:06;;;;;;;13.40;9.13;;;18.50;95.70;;;;;;5061705;28;20046;-77
2023/08/15 00:25:32;;;;;;;12.70;8.77;;;18.50;95.80;;;;;;5062767;28;20052;-78
2023/08/15 00:27:57;;;;;;;9.82;7.90;;;18.20;95.90;;;;;;5058122;28;20131;-77
2023/08/15 00:30:23;;;;;;;13.00;8.98;;;18.50;96.00;;;;;;5059520;28;20052;-77
2023/08/15 00:32:49;;;;;;;9.75;8.25;;;18.50;96.20;;;;;;5057630;28;20100;-77
2023/08/15 00:35:16;;;;;;;9.35;7.00;;;18.60;96.30;;;;;;5030955;28;20044;-75
2023/08/15 00:37:41;;;;;;;11.43;7.53;;;18.60;96.30;;;;;;5060388;28;20044;-75
2023/08/15 00:40:08;;;;;;;11.32;7.50;;;18.60;96.20;;;;;;5056836;28;20054;-76
2023/08/15 00:42:34;;;;;;;10.20;6.97;;;18.60;96.40;;;;;;5045192;28;20109;-78
2023/08/15 00:44:59;;;;;;;10.93;7.15;;;18.60;96.60;;;;;;5049626;28;20407;-76
2023/08/15 00:47:25;;;;;;;10.02;5.70;;;18.70;96.80;;;;;;5080705;28;20056;-77
2023/08/15 00:49:52;;;;;;;10.35;6.07;;;18.70;97.10;;;;;;5047211;28;20064;-77
2023/08/15 00:52:19;;;;;;;10.20;5.90;;;18.80;97.40;;;;;;5031918;28;20062;-76
2023/08/15 00:54:47;;;;;;;10.02;5.60;;;18.90;97.70;;;;;;5045497;28;21006;-76
2023/08/15 00:57:13;;;;;;;10.23;5.68;;;18.90;97.90;;;;;;5059242;28;20047;-76
2023/08/15 00:59:43;;;;;;;9.25;5.35;;;18.90;98.10;;;;;;5055521;28;20047;-79
2023/08/15 01:02:10;;;;;;;10.02;5.80;;;18.90;98.30;;;;;;5059710;28;20482;-76
2023/08/15 01:04:38;;;;;;;9.50;5.10;;;18.90;98.20;;;;;;5067930;28;20059;-77
2023/08/15 01:07:04;;;;;;;10.82;5.55;;;18.90;98.20;;;;;;5045979;28;20184;-78
2023/08/15 01:09:30;;;;;;;9.40;5.30;;;18.90;98.20;;;;;;5047798;28;20398;-76
2023/08/15 01:12:43;;;;;;;8.90;5.35;;;19.00;98.40;;;;;;5048422;28;20063;-76
2023/08/15 01:15:16;;;;;;;9.45;5.30;;;19.00;98.90;;;;;;5055127;28;20060;-78
2023/08/15 01:18:12;;;;;;;8.63;5.10;;;19.00;98.70;;;;;;5062067;28;20060;-76
2023/08/15 01:20:38;;;;;;;12.23;5.65;;;19.00;98.80;;;;;;5058907;28;20749;-77
2023/08/15 01:23:07;;;;;;;11.05;5.57;;;19.00;98.60;;;;;;5062797;28;20050;-77
2023/08/15 01:25:41;;;;;;;10.50;5.60;;;19.00;98.80;;;;;;5033599;28;20040;-76
2023/08/15 01:28:12;;;;;;;12.80;5.45;;;19.10;99.10;;;;;;5061903;28;20962;-76
2023/08/15 01:31:06;;;;;;;11.80;5.30;;;19.20;99.20;;;;;;5058366;28;20089;-75
2023/08/15 01:33:57;;;;;;;8.77;5.28;;;19.20;99.40;;;;;;5062188;28;20055;-78
2023/08/15 01:36:39;;;;;;;10.65;4.65;;;19.30;99.30;;;;;;5042967;28;20039;-78
2023/08/15 01:39:07;;;;;;;12.07;3.85;;;19.40;99.30;;;;;;5046726;28;20044;-76
2023/08/15 01:41:38;;;;;;;9.57;3.78;;;19.40;99.00;;;;;;5042158;28;20058;-75
2023/08/15 01:44:06;;;;;;;9.13;3.20;;;19.40;98.80;;;;;;5045016;28;20482;-76
2023/08/15 01:46:32;;;;;;;9.88;2.85;;;19.50;98.50;;;;;;5066420;28;20070;-76
2023/08/15 01:48:59;;;;;;;6.40;2.67;;;19.40;98.10;;;;;;5044512;28;20541;-78
2023/08/15 01:51:25;;;;;;;7.05;2.53;;;19.50;97.80;;;;;;5033573;28;20061;-78
2023/08/15 01:53:51;;;;;;;5.90;2.40;;;19.50;97.50;;;;;;5059814;28;20040;-76
2023/08/15 01:56:17;;;;;;;4.63;2.50;;;19.60;97.20;;;;;;5060242;28;20051;-77
2023/08/15 01:58:43;;;;;;;5.05;2.70;;;19.60;97.00;;;;;;5059456;28;20039;-78
2023/08/15 02:01:10;;;;;;;10.90;3.03;;;19.60;96.90;;;;;;5065665;28;20071;-78
2023/08/15 02:03:36;;;;;;;6.30;2.70;;;19.60;96.80;;;;;;5035169;28;20043;-78
2023/08/15 02:06:03;;;;;;;8.93;2.58;;;19.60;96.90;;;;;;5054323;28;20047;-76
2023/08/15 02:08:28;;;;;;;6.93;2.25;;;19.70;97.00;;;;;;5039378;28;20072;-80
2023/08/15 02:10:54;;;;;;;7.25;2.95;;;19.70;97.10;;;;;;5048663;28;20138;-75
2023/08/15 02:13:20;;;;;;;10.05;2.97;;;19.70;97.30;;;;;;5033989;28;20627;-79
2023/08/15 02:15:46;;;;;;;6.25;2.35;;;19.70;97.20;;;;;;5033718;28;20044;-78
2023/08/15 02:18:12;;;;;;;5.18;2.67;;;19.70;97.30;;;;;;5059540;28;20040;-78
2023/08/15 02:20:38;;;;;;;6.57;2.40;;;19.70;97.30;;;;;;5061399;28;20074;-76
2023/08/15 02:23:04;;;;;;;7.68;2.35;;;19.70;97.30;;;;;;5061310;28;20059;-76
2023/08/15 02:25:29;;;;;;;6.18;2.05;;;19.70;97.30;;;;;;5017734;28;20039;-77
2023/08/15 02:27:55;;;;;;;5.63;1.95;;;19.70;97.20;;;;;;5030898;28;20496;-79
2023/08/15 02:30:21;;;;;;;5.35;1.90;;;20.50;97.40;;;;;;5062047;28;20051;-77
2023/08/15 02:32:47;;;;;;;5.03;1.90;;;19.70;97.10;;;;;;5060015;28;20051;-78
2023/08/15 02:35:13;;;;;;;6.75;1.80;;;19.70;97.00;;;;;;5015762;28;20047;-76
2023/08/15 02:37:39;;;;;;;4.80;1.67;;;19.80;97.00;;;;;;5053744;28;20050;-79
2023/08/15 02:43:04;;;;;;;6.60;1.67;;;19.60;96.60;;;;;;5107830;27;1330312;-77
2023/08/15 02:45:31;;;;;;;4.13;1.60;;;19.80;96.20;;;;;;5067937;27;20058;-77
2023/08/15 02:47:56;;;;;;;5.10;1.58;;;19.70;95.80;;;;;;5142363;27;20334;-79
2023/08/15 02:50:22;;;;;;;5.88;1.70;;;19.80;95.70;;;;;;5140423;27;20146;-79
2023/08/15 02:52:48;;;;;;;5.30;1.55;;;19.80;95.60;;;;;;5088984;27;20150;-82
2023/08/15 02:55:14;;;;;;;4.40;1.50;;;19.70;95.50;;;;;;5114358;27;20049;-85
2023/08/15 02:57:39;;;;;;;4.55;1.77;;;19.80;95.50;;;;;;5113289;27;20099;-84
2023/08/15 03:00:07;;;;;;;5.22;1.80;;;19.70;95.60;;;;;;5094662;27;20060;-79
2023/08/15 03:02:33;;;;;;;4.85;1.65;;;19.70;95.80;;;;;;5110887;27;20465;-80
2023/08/15 03:04:59;;;;;;;4.90;1.65;;;19.70;96.00;;;;;;5108421;27;20632;-83
2023/08/15 03:07:25;;;;;;;5.43;1.90;;;19.70;96.10;;;;;;5145481;27;20788;-83
2023/08/15 03:09:51;;;;;;;5.68;1.85;;;19.70;96.20;;;;;;5108385;27;20081;-80
2023/08/15 03:12:17;;;;;;;4.93;1.55;;;19.60;96.30;;;;;;5127912;27;20043;-81
2023/08/15 03:14:43;;;;;;;4.22;1.55;;;19.60;96.40;;;;;;5146506;27;20042;-79
2023/08/15 03:17:09;;;;;;;5.40;1.90;;;19.60;96.50;;;;;;5120029;27;20046;-77
2023/08/15 03:19:34;;;;;;;6.30;1.92;;;19.60;96.60;;;;;;5141422;27;20250;-76
2023/08/15 03:22:00;;;;;;;6.95;2.05;;;19.60;96.70;;;;;;5129757;27;20384;-81
2023/08/15 03:24:32;;;;;;;4.88;1.80;;;19.50;96.80;;;;;;5129673;27;20042;-84
2023/08/15 03:26:58;;;;;;;6.70;1.88;;;19.50;96.90;;;;;;5106169;27;20085;-78
2023/08/15 03:29:24;;;;;;;7.95;2.10;;;19.50;97.00;;;;;;5141307;27;20053;-80
2023/08/15 03:31:49;;;;;;;5.68;1.85;;;19.40;97.10;;;;;;5123633;27;20454;-83
2023/08/15 03:34:15;;;;;;;5.28;2.00;;;19.40;97.20;;;;;;5125060;27;20058;-79
2023/08/15 03:36:41;;;;;;;7.05;1.95;;;19.40;97.30;;;;;;5143111;27;20319;-79
2023/08/15 03:39:07;;;;;;;6.57;1.75;;;19.40;97.40;;;;;;5113553;27;20050;-86
2023/08/15 03:41:32;;;;;;;6.47;2.25;;;19.40;97.50;;;;;;5125933;27;20124;-79
2023/08/15 03:43:58;;;;;;;4.82;2.10;;;19.30;97.60;;;;;;5123682;27;20077;-79
2023/08/15 03:46:24;;;;;;;9.60;2.38;;;19.30;97.70;;;;;;5111039;27;20388;-79
2023/08/15 03:48:50;;;;;;;7.30;2.10;;;19.40;97.90;;;;;;5110994;27;20141;-81
2023/08/15 03:51:15;;;;;;;6.47;1.80;;;19.30;98.00;;;;;;5123139;27;20682;-80
2023/08/15 03:53:43;;;;;;;6.28;1.80;;;19.30;98.10;;;;;;5086140;27;20058;-76
2023/08/15 03:56:08;;;;;;;6.65;1.85;;;19.30;98.30;;;;;;5093075;27;20047;-73
2023/08/15 03:58:34;;;;;;;8.55;2.10;;;19.30;98.60;;;;;;5115969;27;20045;-76
2023/08/15 04:01:01;;;;;;;7.57;2.40;;;19.30;98.80;;;;;;5110738;27;20046;-79
2023/08/15 04:03:27;;;;;;;6.60;2.00;;;19.30;99.00;;;;;;5113303;27;20495;-75
2023/08/15 04:05:53;;;;;;;8.02;2.28;;;19.30;99.30;;;;;;5112616;27;20047;-76
2023/08/15 04:08:19;;;;;;;8.63;2.20;;;19.20;99.60;;;;;;5095132;27;20649;-76
2023/08/15 04:10:46;;;;;;;7.65;2.30;;;18.90;99.70;;;;;;5110310;27;20098;-76
2023/08/15 04:13:12;;;;;;;8.10;2.20;;;19.20;99.90;;;;;;5094728;27;20047;-77
2023/08/15 04:15:38;;;;;;;7.18;2.35;;;19.20;99.90;;;;;;5099786;27;20127;-79
2023/08/15 04:18:05;;;;;;;9.40;3.08;;;19.20;99.90;;;;;;5117116;27;20039;-80
2023/08/15 04:20:31;;;;;;;9.23;2.80;;;19.20;99.90;;;;;;5115912;27;20095;-77
2023/08/15 04:22:57;;;;;;;7.97;2.35;;;19.20;99.90;;;;;;5131247;27;20038;-77
2023/08/15 04:25:22;;;;;;;11.82;2.60;;;19.10;99.90;;;;;;5108027;27;20042;-81
2023/08/15 04:27:48;;;;;;;8.35;2.28;;;19.10;99.90;;;;;;5110186;27;20051;-76
2023/08/15 04:30:14;;;;;;;5.93;2.25;;;19.10;99.90;;;;;;5111717;27;20130;-79
2023/08/15 04:32:40;;;;;;;11.00;2.75;;;19.10;99.90;;;;;;5095943;27;20078;-80
2023/08/15 04:35:07;;;;;;;8.25;2.28;;;19.10;99.90;;;;;;5112336;27;20077;-80
2023/08/15 04:37:33;;;;;;;9.77;2.65;;;19.00;99.90;;;;;;5111652;27;20039;-72
2023/08/15 04:39:59;;;;;;;8.80;2.40;;;19.00;99.90;;;;;;5114226;27;20115;-80
2023/08/15 04:42:25;;;;;;;9.90;2.75;;;19.00;99.90;;;;;;5094009;27;20053;-80
2023/08/15 04:44:51;;;;;;;10.30;2.30;;;19.00;99.90;;;;;;5110003;27;21202;-78
2023/08/15 04:47:19;;;;;;;11.05;2.40;;;19.00;99.90;;;;;;5107246;27;20452;-82
2023/08/15 04:49:45;;;;;;;9.90;2.63;;;18.90;99.90;;;;;;5094478;27;20039;-81
2023/08/15 04:52:14;;;;;;;13.82;2.63;;;18.90;99.90;;;;;;5112041;27;20207;-76
2023/08/15 04:54:40;;;;;;;14.48;2.58;;;18.90;99.90;;;;;;5109282;27;20051;-80
2023/08/15 04:57:06;;;;;;;10.82;2.65;;;18.90;99.90;;;;;;5091863;27;20130;-78
2023/08/15 04:59:32;;;;;;;11.23;2.80;;;18.90;99.90;;;;;;5110549;27;20125;-76
2023/08/15 05:01:57;;;;;;;11.68;2.67;;;18.90;99.90;;;;;;5129632;27;20512;-75
2023/08/15 05:04:23;;;;;;;11.00;2.47;;;18.90;99.90;;;;;;5097002;27;20042;-76
2023/08/15 05:06:49;;;;;;;8.82;2.72;;;18.90;99.90;;;;;;5113979;27;20495;-75
2023/08/15 05:09:14;;;;;;;7.47;2.33;;;18.80;99.90;;;;;;5096490;27;20051;-77
2023/08/15 05:11:42;;;;;;;8.15;2.30;;;18.80;99.90;;;;;;5091957;27;20047;-79
2023/08/15 05:14:08;;;;;;;10.20;2.58;;;18.80;99.90;;;;;;5088898;27;20072;-75
2023/08/15 05:16:34;;;;;;;8.88;2.35;;;18.80;99.90;;;;;;5111169;27;20434;-75
2023/08/15 05:19:00;;;;;;;10.48;3.03;;;18.80;99.90;;;;;;5098626;27;20043;-77
2023/08/15 05:21:26;;;;;;;12.32;3.38;;;18.80;99.90;;;;;;5105405;27;20066;-78
2023/08/15 05:23:51;;;;;;;8.60;2.40;;;18.80;99.90;;;;;;5112316;27;20055;-75
2023/08/15 05:26:17;;;;;;;8.05;3.15;;;18.80;99.90;;;;;;5110947;27;20408;-78
2023/08/15 05:28:43;;;;;;;10.35;2.80;;;18.80;99.90;;;;;;5112972;27;20035;-79
2023/08/15 05:31:09;;;;;;;12.07;3.17;;;18.80;99.90;;;;;;5115004;27;20065;-81
2023/08/15 05:33:34;;;;;;;9.50;3.28;;;18.80;99.90;;;;;;5113797;27;20074;-75
2023/08/15 05:36:00;;;;;;;11.25;3.67;;;18.80;99.90;;;;;;5108264;27;20046;-78
2023/08/15 05:38:26;;;;;;;8.95;2.70;;;18.80;99.90;;;;;;5072822;27;20046;-81
2023/08/15 05:40:52;;;;;;;11.93;3.08;;;18.80;99.90;;;;;;5092624;27;20050;-83
2023/08/15 05:43:18;;;;;;;10.90;4.05;;;18.80;99.90;;;;;;5097782;27;20046;-79
2023/08/15 05:45:48;;;;;;;12.23;3.75;;;18.90;99.90;;;;;;5106547;27;20111;-78
2023/08/15 05:48:14;;;;;;;9.93;3.17;;;18.90;99.90;;;;;;5107500;27;20163;-85
2023/08/15 05:50:39;;;;;;;11.85;3.00;;;18.90;99.90;;;;;;5101783;27;20509;-81
2023/08/15 05:53:05;;;;;;;9.25;3.05;;;18.90;99.90;;;;;;5113600;27;20519;-77
2023/08/15 05:55:31;;;;;;;14.77;3.38;;;19.00;99.90;;;;;;5114129;27;20131;-81
2023/08/15 05:57:57;;;;;;;9.05;3.10;;;19.00;99.90;;;;;;5108823;27;20060;-83
2023/08/15 06:00:23;;;;;;;12.00;4.10;;;19.00;99.90;;;;;;5088258;27;20037;-77
2023/08/15 06:02:48;;;;;;;8.75;2.85;;;19.00;99.90;;;;;;5095834;27;20128;-76
2023/08/15 06:05:14;;;;;;;10.10;3.22;;;19.10;99.90;;;;;;5111184;27;20107;-78
2023/08/15 06:07:41;;;;;;;10.35;3.40;;;19.10;99.90;;;;;;5078140;27;20993;-76
2023/08/15 06:10:08;;;;;;;10.68;2.90;;;19.20;99.90;;;;;;5104963;27;20146;-78
2023/08/15 06:12:34;;;;;;;9.18;2.70;;;19.20;99.90;;;;;;5089981;27;20035;-77
2023/08/15 06:15:00;;;;;;;9.55;2.95;;;19.20;99.90;;;;;;5100927;27;20046;-78
2023/08/15 06:17:25;;;;;;;9.68;3.78;;;19.20;99.90;;;;;;5097215;27;21525;-78
2023/08/15 06:19:53;;;;;;;11.23;3.67;;;19.30;99.90;;;;;;5111898;27;20642;-80
2023/08/15 06:22:19;;;;;;;12.15;3.70;;;19.30;99.90;;;;;;5102535;27;20042;-76
2023/08/15 06:24:44;;;;;;;9.57;2.78;;;19.30;99.90;;;;;;5123750;27;20057;-78
2023/08/15 06:27:11;;;;;;;9.95;2.67;;;19.40;99.90;;;;;;5094172;27;20042;-77
2023/08/15 06:29:37;;;;;;;9.18;2.60;;;19.40;99.90;;;;;;5090210;27;20859;-81
2023/08/15 06:32:03;;;;;;;9.20;2.40;;;19.80;99.90;;;;;;5076494;27;20058;-77
2023/08/15 06:34:29;;;;;;;9.15;2.92;;;19.50;99.90;;;;;;5097974;27;20137;-76
2023/08/15 06:36:54;;;;;;;5.13;2.38;;;19.50;99.90;;;;;;5106601;27;20583;-81
2023/08/15 06:39:20;;;;;;;9.30;3.28;;;19.60;99.90;;;;;;5090461;27;20073;-78
2023/08/15 06:41:46;;;;;;;10.98;2.80;;;19.70;99.90;;;;;;5098697;27;20038;-78
2023/08/15 06:44:12;;;;;;;9.25;2.40;;;19.80;99.90;;;;;;5103425;27;20051;-79
2023/08/15 06:46:38;;;;;;;9.77;2.80;;;19.80;99.90;;;;;;5111056;27;20051;-80
2023/08/15 06:49:03;;;;;;;6.50;2.53;;;19.90;99.90;;;;;;5079065;27;20092;-76
2023/08/15 06:51:29;;;;;;;11.23;3.30;;;20.00;99.70;;;;;;5113966;27;20049;-79
2023/08/15 06:53:55;;;;;;;11.40;3.28;;;20.10;99.40;;;;;;5096023;27;20054;-77
2023/08/15 06:56:21;;;;;;;6.63;1.88;;;20.10;98.80;;;;;;5094863;27;20047;-77
2023/08/15 06:58:47;;;;;;;5.40;2.22;;;20.10;98.20;;;;;;5109240;27;20588;-82
2023/08/15 07:01:13;;;;;;;8.05;2.67;;;20.20;97.80;;;;;;5112677;27;20058;-80
2023/08/15 07:03:38;;;;;;;6.38;1.70;;;20.30;97.40;;;;;;5112327;27;20051;-78
2023/08/15 07:06:05;;;;;;;10.63;2.53;;;20.40;96.90;;;;;;5094454;27;20047;-77
2023/08/15 07:08:31;;;;;;;6.82;2.30;;;20.40;96.00;;;;;;5097332;27;20035;-77
2023/08/15 07:10:58;;;;;;;8.25;2.08;;;20.50;95.20;;;;;;5093911;27;20054;-78
2023/08/15 07:13:24;;;;;;;6.75;2.30;;;20.50;94.20;;;;;;5110794;27;20053;-76
2023/08/15 07:15:58;;;;;;;7.65;2.13;;;20.60;93.30;;;;;;5113931;27;20047;-77
2023/08/15 07:18:24;;;;;;;7.00;2.30;;;20.60;92.00;;;;;;5101847;27;20044;-81
2023/08/15 07:20:51;;;;;;;12.70;4.20;;;20.80;91.70;;;;;;5116346;27;20035;-78
2023/08/15 07:23:17;;;;;;;13.07;5.18;;;20.80;91.00;;;;;;5114959;27;20054;-79
2023/08/15 07:25:43;;;;;;;8.45;2.60;;;21.00;90.30;;;;;;5118912;27;20133;-76
2023/08/15 07:28:09;;;;;;;8.27;2.40;;;20.90;88.90;;;;;;5118354;27;20382;-82
2023/08/15 07:30:35;;;;;;;7.38;2.88;;;21.00;88.20;;;;;;5118537;27;20043;-77
2023/08/15 07:33:02;;;;;;;6.00;3.15;;;21.10;87.30;;;;;;5122065;27;20045;-78
2023/08/15 07:35:28;;;;;;;7.38;2.20;;;21.20;86.90;;;;;;5125387;27;20042;-77
2023/08/15 07:37:54;;;;;;;7.05;2.20;;;21.10;86.80;;;;;;5106821;27;20103;-77
2023/08/15 07:40:21;;;;;;;5.93;1.90;;;21.20;86.80;;;;;;5123755;27;20039;-80
2023/08/15 07:42:49;;;;;;;6.07;1.70;;;21.20;86.70;;;;;;5127478;27;20038;-81
2023/08/15 07:45:19;;;;;;;7.85;1.67;;;21.20;85.90;;;;;;5109462;27;20035;-76
2023/08/15 07:47:48;;;;;;;6.97;2.08;;;21.30;85.30;;;;;;5107861;27;20116;-79
2023/08/15 07:50:18;;;;;;;7.28;2.17;;;21.30;84.90;;;;;;5123670;27;20042;-74
2023/08/15 07:52:45;;;;;;;6.72;1.70;;;21.40;83.80;;;;;;5125180;27;20130;-78
2023/08/15 07:55:11;;;;;;;6.05;1.92;;;21.50;83.30;;;;;;5125159;27;20056;-77
2023/08/15 07:57:37;;;;;;;4.13;1.70;;;21.70;82.40;;;;;;5105715;27;20430;-77
2023/08/15 08:00:04;;;;;;;8.63;1.77;;;21.90;80.50;;;;;;5125118;27;20038;-82
2023/08/15 08:02:30;;;;;;;5.13;1.92;;;22.10;78.50;;;;;;5122605;27;20055;-80
2023/08/15 08:04:56;;;;;;;5.40;1.80;;;22.20;76.70;;;;;;5124096;27;20290;-76
2023/08/15 08:07:21;;;;;;;6.10;1.73;;;22.40;74.20;;;;;;5122866;27;20039;-76
2023/08/15 08:09:47;;;;;;;7.22;1.98;;;22.50;72.80;;;;;;5118882;27;20058;-79
2023/08/15 08:12:13;;;;;;;6.18;1.90;;;22.60;71.20;;;;;;5109049;27;20038;-79
2023/08/15 08:14:39;;;;;;;3.75;1.60;;;22.70;67.60;;;;;;5123925;27;20046;-77
2023/08/15 08:17:05;;;;;;;8.35;1.88;;;22.70;66.30;;;;;;5112014;27;20488;-80
2023/08/15 08:19:31;;;;;;;9.45;1.90;;;22.80;64.60;;;;;;5104956;27;20495;-77
2023/08/15 08:21:57;;;;;;;5.85;1.60;;;22.80;62.40;;;;;;5122310;27;20061;-77
2023/08/15 08:24:23;;;;;;;6.50;1.70;;;22.90;61.40;;;;;;5139947;27;20042;-78
2023/08/15 08:26:49;;;;;;;6.53;1.80;;;23.00;60.30;;;;;;5109051;27;20129;-80
2023/08/15 08:29:15;;;;;;;4.70;1.52;;;23.10;59.30;;;;;;5121946;27;20145;-79
2023/08/15 08:31:41;;;;;;;6.43;1.67;;;23.10;56.50;;;;;;5116882;27;20431;-79
2023/08/15 08:34:14;;;;;;;6.18;1.70;;;23.20;54.80;;;;;;5121109;27;20314;-79
2023/08/15 08:36:43;;;;;;;4.20;1.63;;;23.20;53.10;;;;;;5105094;27;20133;-76
2023/08/15 08:39:10;;;;;;;6.88;1.83;;;23.40;51.20;;;;;;5121409;27;20125;-79
2023/08/15 08:41:36;;;;;;;4.30;1.65;;;23.40;48.50;;;;;;5117445;27;20486;-82
2023/08/15 08:44:02;;;;;;;8.45;2.00;;;23.40;43.30;;;;;;5119919;27;20047;-77
2023/08/15 08:46:33;;;;;;;4.68;1.60;;;23.40;42.30;;;;;;5106858;27;20065;-78
2023/08/15 08:49:00;;;;;;;4.18;1.55;;;23.50;40.10;;;;;;5122935;27;20493;-77
2023/08/15 08:51:27;;;;;;;6.28;1.50;;;23.70;37.60;;;;;;5120017;27;20039;-80
2023/08/15 08:53:54;;;;;;;4.85;1.75;;;23.80;33.20;;;;;;5125920;27;20141;-77
2023/08/15 08:56:24;;;;;;;5.05;1.55;;;23.70;30.90;;;;;;5106192;27;20070;-76
2023/08/15 08:59:09;;;;;;;4.55;1.58;;;23.80;28.60;;;;;;5107457;27;20061;-79
2023/08/15 09:01:37;;;;;;;3.83;1.33;;;23.80;28.40;;;;;;5119881;27;20043;-79
2023/08/15 09:04:03;;;;;;;4.80;1.70;;;23.90;24.10;;;;;;5137609;27;20388;-76
2023/08/15 09:06:29;;;;;;;3.63;1.50;;;24.00;19.70;;;;;;5121203;27;20400;-77
2023/08/15 09:08:58;;;;;;;4.82;1.48;;;23.90;18.10;;;;;;5109257;27;20642;-76
2023/08/15 09:11:31;;;;;;;4.32;1.40;;;24.00;18.80;;;;;;5108249;27;20103;-80
2023/08/15 09:14:01;;;;;;;5.03;1.80;;;23.80;16.90;;;;;;5121427;27;20051;-81
2023/08/15 09:16:26;;;;;;;5.13;1.70;;;23.80;16.20;;;;;;5085956;27;20745;-81
2023/08/15 09:18:52;;;;;;;6.57;1.40;;;24.00;18.90;;;;;;5121393;27;20039;-77
2023/08/15 09:21:18;;;;;;;5.25;1.63;;;24.20;16.40;;;;;;5121520;27;20232;-79
2023/08/15 09:23:45;;;;;;;6.70;1.50;;;24.30;10.50;;;;;;5139694;27;20062;-82
2023/08/15 09:26:15;;;;;;;3.38;1.40;;;24.30;6.40;;;;;;5105341;27;20051;-77
2023/08/15 09:28:43;;;;;;;5.03;1.25;;;24.40;5.60;;;;;;5124289;27;20355;-80
2023/08/15 09:31:10;;;;;;;5.05;1.40;;;24.60;4.00;;;;;;5117298;27;20052;-78
2023/08/15 09:33:40;;;;;;;4.97;1.27;;;24.70;3.20;;;;;;5124011;27;20201;-83
2023/08/15 09:36:09;;;;;;;3.67;1.20;;;24.80;1.70;;;;;;5118769;27;20068;-81
2023/08/15 09:38:39;;;;;;;4.07;1.30;;;25.00;1.00;;;;;;5125993;27;20388;-77
2023/08/15 09:41:06;;;;;;;4.72;1.45;;;25.10;1.00;;;;;;5118586;27;20118;-77
2023/08/15 09:43:32;;;;;;;3.50;1.38;;;25.10;1.00;;;;;;5117294;27;20159;-78
2023/08/15 09:46:01;;;;;;;7.00;1.70;;;25.20;1.00;;;;;;5106928;27;20103;-80
2023/08/15 09:48:28;;;;;;;7.75;1.65;;;25.10;1.00;;;;;;5120371;27;20143;-83
2023/08/15 09:50:57;;;;;;;4.25;1.48;;;25.30;1.00;;;;;;5116738;27;20054;-78
2023/08/15 09:53:26;;;;;;;3.70;1.35;;;25.40;1.00;;;;;;5100787;27;20086;-79
2023/08/15 09:55:53;;;;;;;4.22;1.60;;;25.40;1.00;;;;;;5102983;27;20049;-78
2023/08/15 09:58:19;;;;;;;6.32;1.75;;;25.50;1.00;;;;;;5120864;27;20050;-79
2023/08/15 10:00:51;;;;;;;5.45;1.40;;;25.70;1.00;;;;;;5107360;27;20039;-80
2023/08/15 10:03:33;;;;;;;5.65;1.52;;;25.90;1.00;;;;;;5120680;27;20118;-78
2023/08/15 10:06:02;;;;;;;3.78;1.35;;;26.00;1.00;;;;;;5117027;27;20047;-79
2023/08/15 10:08:29;;;;;;;3.40;1.30;;;26.30;1.00;;;;;;5118756;27;20779;-79
2023/08/15 10:10:58;;;;;;;5.38;1.45;;;26.40;1.00;;;;;;5110937;27;20054;-78
2023/08/15 10:13:31;;;;;;;5.65;1.35;;;26.40;1.00;;;;;;5094973;27;20043;-81
2023/08/15 10:15:58;;;;;;;4.70;1.40;;;26.40;1.00;;;;;;5103908;27;20057;-78
2023/08/15 10:18:25;;;;;;;3.30;1.30;;;26.30;1.00;;;;;;5121925;27;20050;-79
2023/08/15 10:20:52;;;;;;;4.13;1.50;;;26.00;1.00;;;;;;5112434;27;20125;-80
2023/08/15 10:23:32;;;;;;;4.95;1.42;;;25.90;1.00;;;;;;5101866;27;20039;-82
2023/08/15 10:25:59;;;;;;;3.50;1.38;;;26.10;1.00;;;;;;5119633;27;20255;-83
2023/08/15 10:28:30;;;;;;;5.70;1.42;;;26.10;1.00;;;;;;5114341;27;20071;-79
2023/08/15 10:30:56;;;;;;;6.35;1.60;;;25.90;1.00;;;;;;5104298;27;20542;-79
2023/08/15 10:33:28;;;;;;;4.13;1.58;;;25.70;1.00;;;;;;5112812;27;20046;-78
2023/08/15 10:35:54;;;;;;;4.07;1.38;;;25.60;1.00;;;;;;5129260;27;20086;-80
2023/08/15 10:38:30;;;;;;;5.75;1.50;;;25.70;1.00;;;;;;5115943;27;20132;-82
2023/08/15 10:41:03;;;;;;;;;;;25.60;1.00;;;;;;5102410;27;20066;-77
2023/08/15 10:43:31;;;;;;;3.83;1.40;;;25.50;1.00;;;;;;5116206;27;20584;-80
2023/08/15 10:46:01;;;;;;;4.88;1.48;;;25.60;1.00;;;;;;5096923;27;20119;-78
2023/08/15 10:48:52;;;;;;;4.93;1.40;;;25.80;1.00;;;;;;5117012;27;20337;-78
2023/08/15 10:51:26;;;;;;;6.13;1.55;;;25.90;1.00;;;;;;5089431;27;20042;-77
2023/08/15 10:53:57;;;;;;;6.60;1.60;;;25.90;1.00;;;;;;5114238;27;20477;-82
2023/08/15 10:56:28;;;;;;;5.32;1.77;;;26.00;1.00;;;;;;5114690;27;20149;-77
2023/08/15 10:58:55;;;;;;;9.23;1.80;;;26.00;1.00;;;;;;5114824;27;20051;-81
2023/08/15 11:01:24;;;;;;;5.25;1.75;;;26.20;1.00;;;;;;5077595;27;20145;-77
2023/08/15 11:03:52;;;;;;;5.80;1.98;;;26.00;1.00;;;;;;5110855;27;20049;-84
2023/08/15 11:06:18;;;;;;;5.25;1.77;;;26.10;1.00;;;;;;5100546;27;20042;-78
2023/08/15 11:08:50;;;;;;;5.32;1.67;;;26.00;1.00;;;;;;5097344;27;20042;-83
2023/08/15 11:11:16;;;;;;;5.28;1.63;;;26.10;1.00;;;;;;5116141;27;20126;-78
2023/08/15 11:13:45;;;;;;;4.70;1.60;;;25.90;1.00;;;;;;5122194;27;20049;-76
2023/08/15 11:16:14;;;;;;;3.03;1.40;;;25.90;1.00;;;;;;5102352;27;20080;-79
2023/08/15 11:18:41;;;;;;;5.43;1.42;;;26.10;1.00;;;;;;5119907;27;20108;-81
2023/08/15 11:21:09;;;;;;;6.75;1.48;;;26.10;1.00;;;;;;5095557;27;20047;-77
2023/08/15 11:23:36;;;;;;;3.65;1.10;;;26.30;1.00;;;;;;5117708;27;20070;-79
2023/08/15 11:26:08;;;;;;;4.93;1.58;;;26.60;1.00;;;;;;5119977;27;20191;-76
2023/08/15 11:28:35;;;;;;;2.95;1.02;;;26.40;1.00;;;;;;5104050;27;20053;-78
2023/08/15 11:31:14;;;;;;;3.60;1.23;;;26.50;1.00;;;;;;5117519;27;20050;-78
2023/08/15 11:33:40;;;;;;;4.88;1.10;;;26.40;1.00;;;;;;5100312;27;20043;-80
2023/08/15 11:36:09;;;;;;;4.10;1.20;;;26.40;1.00;;;;;;5099477;27;20046;-84
2023/08/15 11:38:37;;;;;;;3.15;1.08;;;26.40;1.00;;;;;;5116221;27;20463;-78
2023/08/15 11:41:03;;;;;;;2.45;0.95;;;26.50;1.00;;;;;;5108980;27;20078;-84
2023/08/15 11:43:30;;;;;;;4.80;1.23;;;26.70;1.00;;;;;;5124694;27;20082;-77
2023/08/15 11:45:56;;;;;;;2.55;1.00;;;26.60;1.00;;;;;;5107251;27;20062;-79
2023/08/15 11:48:22;;;;;;;4.82;1.30;;;26.60;99.90;;;;;;5118462;27;20072;-83
2023/08/15 11:50:50;;;;;;;3.25;1.17;;;26.50;99.90;;;;;;5118750;27;20046;-79
2023/08/15 11:53:17;;;;;;;3.47;1.30;;;26.40;99.90;;;;;;5106542;27;20068;-83
2023/08/15 11:55:44;;;;;;;4.05;1.00;;;26.50;99.90;;;;;;5113200;27;20076;-84
2023/08/15 11:58:27;;;;;;;3.50;1.00;;;26.40;99.90;;;;;;5112916;27;20131;-79
2023/08/15 12:01:00;;;;;;;4.47;0.73;;;26.50;99.90;;;;;;5112558;27;20047;-83
2023/08/15 12:03:27;;;;;;;5.35;1.00;;;26.80;99.90;;;;;;5114624;27;20146;-85
2023/08/15 12:05:55;;;;;;;2.60;1.10;;;27.10;99.90;;;;;;5113041;27;20049;-80
2023/08/15 12:08:23;;;;;;;3.08;1.10;;;27.40;15.70;;;;;;5110420;27;20352;-84
2023/08/15 12:10:49;;;;;;;2.78;0.82;;;27.50;1.00;;;;;;5113199;27;20069;-84
2023/08/15 12:13:14;;;;;;;5.07;1.20;;;27.50;99.90;;;;;;5100562;27;20599;-83
2023/08/15 12:15:40;;;;;;;2.78;0.88;;;27.40;1.00;;;;;;5107911;27;20131;-82
2023/08/15 12:18:06;;;;;;;3.70;1.20;;;27.20;99.90;;;;;;5114553;27;20941;-84
2023/08/15 12:20:33;;;;;;;3.25;0.90;;;27.30;99.90;;;;;;5118327;27;20073;-81
2023/08/15 12:22:58;;;;;;;2.95;1.00;;;27.30;99.90;;;;;;5116676;27;20085;-80
2023/08/15 12:25:27;;;;;;;4.38;0.90;;;27.20;18.40;;;;;;5111210;27;20129;-81
2023/08/15 12:27:53;;;;;;;3.33;1.05;;;27.10;1.00;;;;;;5105590;27;20043;-83
2023/08/15 12:30:20;;;;;;;3.17;1.35;;;27.00;74.60;;;;;;5100051;27;20464;-79
2023/08/15 12:32:45;;;;;;;2.58;1.02;;;26.90;57.80;;;;;;5118182;27;20084;-80
2023/08/15 12:35:11;;;;;;;2.33;0.80;;;26.90;1.00;;;;;;5120690;27;20129;-83
2023/08/15 12:37:37;;;;;;;3.80;0.88;;;26.90;99.90;;;;;;5105955;27;20051;-85
2023/08/15 12:40:03;;;;;;;1.67;0.80;;;26.90;37.00;;;;;;5112298;27;20039;-79
2023/08/15 12:42:29;;;;;;;3.90;1.00;;;27.00;81.90;;;;;;5132305;27;20043;-82
2023/08/15 12:44:55;;;;;;;2.08;0.77;;;27.20;99.90;;;;;;5112310;27;20057;-78
2023/08/15 12:47:20;;;;;;;3.80;1.40;;;27.10;1.00;;;;;;5111027;27;20118;-80
2023/08/15 12:49:47;;;;;;;2.45;0.80;;;27.00;99.90;;;;;;5098072;27;20562;-80
2023/08/15 12:52:12;;;;;;;4.15;1.10;;;27.10;99.90;;;;;;5115229;27;20242;-80